createdAt,value
2017-02-04T00:00:18.214Z,1022.73
2017-02-04T00:01:18.195Z,1022.75
2017-02-04T00:02:18.180Z,1022.76
2017-02-04T00:03:18.174Z,1022.74
2017-02-04T00:04:18.160Z,1022.74
2017-02-04T00:05:18.147Z,1022.74
2017-02-04T00:06:18.131Z,1022.74
2017-02-04T00:07:18.124Z,1022.74
2017-02-04T00:08:18.106Z,1022.69
2017-02-04T00:09:18.092Z,1022.68
2017-02-04T00:10:18.078Z,1022.71
2017-02-04T00:11:18.067Z,1022.69
2017-02-04T00:12:18.054Z,1022.73
2017-02-04T00:13:18.046Z,1022.7
2017-02-04T00:14:18.029Z,1022.64
2017-02-04T00:15:18.019Z,1022.7
2017-02-04T00:16:18.008Z,1022.71
2017-02-04T00:17:17.995Z,1022.7
2017-02-04T00:18:17.978Z,1022.72
2017-02-04T00:19:17.964Z,1022.79
2017-02-04T00:20:17.951Z,1022.76
2017-02-04T00:21:17.939Z,1022.8
2017-02-04T00:22:17.928Z,1022.79
2017-02-04T00:23:17.914Z,1022.75
2017-02-04T00:24:17.899Z,1022.74
2017-02-04T00:25:17.889Z,1022.71
2017-02-04T00:26:17.876Z,1022.69
2017-02-04T00:27:17.863Z,1022.71
2017-02-04T00:28:17.849Z,1022.72
2017-02-04T00:29:17.836Z,1022.71
2017-02-04T00:30:17.823Z,1022.7
2017-02-04T00:31:17.810Z,1022.74
2017-02-04T00:32:17.797Z,1022.71
2017-02-04T00:33:17.785Z,1022.69
2017-02-04T00:34:17.774Z,1022.7
2017-02-04T00:35:17.760Z,1022.64
2017-02-04T00:36:17.749Z,1022.68
2017-02-04T00:37:17.735Z,1022.68
2017-02-04T00:38:17.721Z,1022.64
2017-02-04T00:39:17.707Z,1022.74
2017-02-04T00:40:17.695Z,1022.73
2017-02-04T00:41:17.684Z,1022.74
2017-02-04T00:42:17.671Z,1022.71
2017-02-04T00:43:17.659Z,1022.77
2017-02-04T00:44:17.645Z,1022.78
2017-02-04T00:45:17.633Z,1022.77
2017-02-04T00:46:17.619Z,1022.76
2017-02-04T00:47:17.607Z,1022.75
2017-02-04T00:48:17.592Z,1022.77
2017-02-04T00:49:17.581Z,1022.76
2017-02-04T00:50:17.567Z,1022.76
2017-02-04T00:51:17.554Z,1022.76
2017-02-04T00:52:17.541Z,1022.77
2017-02-04T00:53:17.528Z,1022.78
2017-02-04T00:54:17.517Z,1022.78
2017-02-04T00:55:17.503Z,1022.82
2017-02-04T00:56:17.492Z,1022.81
2017-02-04T00:57:17.479Z,1022.84
2017-02-04T00:58:17.464Z,1022.86
2017-02-04T00:59:17.451Z,1022.84
2017-02-04T01:00:17.438Z,1022.83
2017-02-04T01:01:17.425Z,1022.85
2017-02-04T01:02:17.414Z,1022.82
2017-02-04T01:03:17.402Z,1022.76
2017-02-04T01:04:17.388Z,1022.74
2017-02-04T01:05:17.375Z,1022.73
2017-02-04T01:06:17.362Z,1022.74
2017-02-04T01:07:17.346Z,1022.72
2017-02-04T01:08:17.335Z,1022.73
2017-02-04T01:09:17.322Z,1022.71
2017-02-04T01:10:17.309Z,1022.76
2017-02-04T01:11:17.298Z,1022.82
2017-02-04T01:12:17.285Z,1022.84
2017-02-04T01:13:17.272Z,1022.82
2017-02-04T01:14:17.257Z,1022.85
2017-02-04T01:15:17.246Z,1022.88
2017-02-04T01:16:17.234Z,1022.84
2017-02-04T01:17:17.219Z,1022.88
2017-02-04T01:18:17.206Z,1022.89
2017-02-04T01:19:17.193Z,1022.88
2017-02-04T01:20:17.180Z,1022.89
2017-02-04T01:21:17.169Z,1022.89
2017-02-04T01:22:17.156Z,1022.82
2017-02-04T01:23:17.142Z,1022.77
2017-02-04T01:24:17.130Z,1022.74
2017-02-04T01:25:17.117Z,1022.66
2017-02-04T01:26:17.102Z,1022.72
2017-02-04T01:27:17.089Z,1022.7
2017-02-04T01:28:17.076Z,1022.71
2017-02-04T01:29:17.064Z,1022.66
2017-02-04T01:30:17.054Z,1022.7
2017-02-04T01:31:17.040Z,1022.68
2017-02-04T01:32:17.025Z,1022.67
2017-02-04T01:33:17.017Z,1022.65
2017-02-04T01:34:17.000Z,1022.65
2017-02-04T01:35:16.986Z,1022.66
2017-02-04T01:36:16.973Z,1022.63
2017-02-04T01:37:16.960Z,1022.65
2017-02-04T01:38:16.950Z,1022.62
2017-02-04T01:39:16.934Z,1022.63
2017-02-04T01:40:16.920Z,1022.65
2017-02-04T01:41:16.909Z,1022.66
2017-02-04T01:42:16.897Z,1022.7
2017-02-04T01:43:16.884Z,1022.71
2017-02-04T01:44:16.873Z,1022.71
2017-02-04T01:45:16.857Z,1022.72
2017-02-04T01:46:16.845Z,1022.77
2017-02-04T01:47:16.831Z,1022.77
2017-02-04T01:48:16.819Z,1022.76
2017-02-04T01:49:16.805Z,1022.77
2017-02-04T01:50:16.792Z,1022.72
2017-02-04T01:51:16.780Z,1022.72
2017-02-04T01:52:16.767Z,1022.71
2017-02-04T01:53:16.755Z,1022.68
2017-02-04T01:54:16.739Z,1022.68
2017-02-04T01:55:16.726Z,1022.68
2017-02-04T01:56:16.715Z,1022.69
2017-02-04T01:57:16.700Z,1022.75
2017-02-04T01:58:16.687Z,1022.74
2017-02-04T01:59:16.676Z,1022.74
2017-02-04T02:00:16.663Z,1022.74
2017-02-04T02:01:16.650Z,1022.75
2017-02-04T02:02:16.636Z,1022.73
2017-02-04T02:03:16.622Z,1022.71
2017-02-04T02:04:16.609Z,1022.64
2017-02-04T02:05:16.596Z,1022.63
2017-02-04T02:06:16.583Z,1022.6
2017-02-04T02:07:16.573Z,1022.6
2017-02-04T02:08:16.559Z,1022.64
2017-02-04T02:09:16.545Z,1022.63
2017-02-04T02:10:16.534Z,1022.66
2017-02-04T02:11:16.520Z,1022.65
2017-02-04T02:12:16.507Z,1022.68
2017-02-04T02:13:16.492Z,1022.66
2017-02-04T02:14:16.479Z,1022.65
2017-02-04T02:15:16.467Z,1022.63
2017-02-04T02:16:16.454Z,1022.63
2017-02-04T02:17:16.441Z,1022.62
2017-02-04T02:18:16.428Z,1022.6
2017-02-04T02:19:16.415Z,1022.6
2017-02-04T02:20:16.402Z,1022.58
2017-02-04T02:21:16.389Z,1022.51
2017-02-04T02:22:16.373Z,1022.5
2017-02-04T02:23:16.362Z,1022.5
2017-02-04T02:24:16.349Z,1022.47
2017-02-04T02:25:16.335Z,1022.45
2017-02-04T02:26:16.323Z,1022.42
2017-02-04T02:27:16.310Z,1022.35
2017-02-04T02:28:16.295Z,1022.3
2017-02-04T02:29:16.285Z,1022.25
2017-02-04T02:30:16.270Z,1022.17
2017-02-04T02:31:16.256Z,1022.13
2017-02-04T02:32:16.244Z,1022.1
2017-02-04T02:33:16.230Z,1022.18
2017-02-04T02:34:16.216Z,1022.28
2017-02-04T02:35:16.202Z,1022.34
2017-02-04T02:36:16.189Z,1022.34
2017-02-04T02:37:16.177Z,1022.34
2017-02-04T02:38:16.164Z,1022.33
2017-02-04T02:39:16.151Z,1022.3
2017-02-04T02:40:16.144Z,1022.27
2017-02-04T02:41:16.124Z,1022.27
2017-02-04T02:42:16.112Z,1022.29
2017-02-04T02:43:16.096Z,1022.35
2017-02-04T02:44:16.084Z,1022.37
2017-02-04T02:45:16.070Z,1022.36
2017-02-04T02:46:16.058Z,1022.44
2017-02-04T02:47:16.046Z,1022.44
2017-02-04T02:48:16.031Z,1022.45
2017-02-04T02:49:16.018Z,1022.4
2017-02-04T02:50:16.008Z,1022.37
2017-02-04T02:51:15.991Z,1022.39
2017-02-04T02:52:15.976Z,1022.36
2017-02-04T02:53:15.965Z,1022.39
2017-02-04T02:54:15.952Z,1022.39
2017-02-04T02:55:15.938Z,1022.36
2017-02-04T02:56:15.924Z,1022.35
2017-02-04T02:57:15.912Z,1022.29
2017-02-04T02:58:15.899Z,1022.24
2017-02-04T02:59:15.886Z,1022.24
2017-02-04T03:00:15.871Z,1022.28
2017-02-04T03:01:15.858Z,1022.25
2017-02-04T03:02:15.844Z,1022.27
2017-02-04T03:03:15.830Z,1022.27
2017-02-04T03:04:15.817Z,1022.23
2017-02-04T03:05:15.803Z,1022.23
2017-02-04T03:06:15.791Z,1022.2
2017-02-04T03:07:15.779Z,1022.17
2017-02-04T03:08:15.764Z,1022.2
2017-02-04T03:09:15.751Z,1022.2
2017-02-04T03:10:15.736Z,1022.28
2017-02-04T03:11:15.723Z,1022.29
2017-02-04T03:12:15.710Z,1022.31
2017-02-04T03:13:15.696Z,1022.32
2017-02-04T03:14:15.682Z,1022.35
2017-02-04T03:15:15.670Z,1022.34
2017-02-04T03:16:15.657Z,1022.34
2017-02-04T03:17:15.648Z,1022.34
2017-02-04T03:18:15.627Z,1022.32
2017-02-04T03:19:15.615Z,1022.31
2017-02-04T03:20:15.604Z,1022.36
2017-02-04T03:21:15.590Z,1022.45
2017-02-04T03:22:15.579Z,1022.43
2017-02-04T03:23:15.561Z,1022.44
2017-02-04T03:24:15.549Z,1022.42
2017-02-04T03:25:15.534Z,1022.38
2017-02-04T03:26:15.523Z,1022.41
2017-02-04T03:27:15.510Z,1022.41
2017-02-04T03:28:15.496Z,1022.36
2017-02-04T03:29:15.483Z,1022.38
2017-02-04T03:30:15.471Z,1022.32
2017-02-04T03:31:15.456Z,1022.3
2017-02-04T03:32:15.442Z,1022.23
2017-02-04T03:33:15.428Z,1022.21
2017-02-04T03:34:15.416Z,1022.22
2017-02-04T03:35:15.402Z,1022.21
2017-02-04T03:36:15.388Z,1022.29
2017-02-04T03:37:15.376Z,1022.31
2017-02-04T03:38:15.362Z,1022.35
2017-02-04T03:39:15.348Z,1022.41
2017-02-04T03:40:15.333Z,1022.4
2017-02-04T03:41:15.324Z,1022.45
2017-02-04T03:42:15.310Z,1022.42
2017-02-04T03:43:15.295Z,1022.46
2017-02-04T03:44:15.284Z,1022.45
2017-02-04T03:45:15.270Z,1022.51
2017-02-04T03:46:15.256Z,1022.5
2017-02-04T03:47:15.241Z,1022.51
2017-02-04T03:48:15.230Z,1022.49
2017-02-04T03:49:15.217Z,1022.5
2017-02-04T03:50:15.203Z,1022.47
2017-02-04T03:51:15.189Z,1022.47
2017-02-04T03:52:15.177Z,1022.4
2017-02-04T03:53:15.164Z,1022.36
2017-02-04T03:54:15.150Z,1022.29
2017-02-04T03:55:15.136Z,1022.27
2017-02-04T03:56:15.125Z,1022.26
2017-02-04T03:57:15.111Z,1022.27
2017-02-04T03:58:15.095Z,1022.24
2017-02-04T03:59:15.083Z,1022.21
2017-02-04T04:00:15.074Z,1022.18
2017-02-04T04:01:15.056Z,1022.27
2017-02-04T04:02:15.044Z,1022.26
2017-02-04T04:03:15.030Z,1022.25
2017-02-04T04:04:15.018Z,1022.27
2017-02-04T04:05:15.004Z,1022.27
2017-02-04T04:06:14.989Z,1022.35
2017-02-04T04:07:15.007Z,1022.38
2017-02-04T04:08:14.965Z,1022.42
2017-02-04T04:09:14.950Z,1022.45
2017-02-04T04:10:14.938Z,1022.42
2017-02-04T04:11:14.925Z,1022.49
2017-02-04T04:12:14.912Z,1022.46
2017-02-04T04:13:14.898Z,1022.41
2017-02-04T04:14:14.884Z,1022.4
2017-02-04T04:15:14.872Z,1022.37
2017-02-04T04:16:14.858Z,1022.34
2017-02-04T04:17:14.848Z,1022.33
2017-02-04T04:18:14.830Z,1022.35
2017-02-04T04:19:14.819Z,1022.33
2017-02-04T04:20:14.802Z,1022.31
2017-02-04T04:21:14.791Z,1022.3
2017-02-04T04:22:14.779Z,1022.31
2017-02-04T04:23:14.767Z,1022.28
2017-02-04T04:24:14.751Z,1022.27
2017-02-04T04:25:14.739Z,1022.3
2017-02-04T04:26:14.725Z,1022.3
2017-02-04T04:27:14.711Z,1022.3
2017-02-04T04:28:14.698Z,1022.28
2017-02-04T04:29:14.684Z,1022.23
2017-02-04T04:30:14.673Z,1022.23
2017-02-04T04:31:14.659Z,1022.26
2017-02-04T04:32:14.646Z,1022.2
2017-02-04T04:33:14.638Z,1022.21
2017-02-04T04:34:14.618Z,1022.27
2017-02-04T04:35:14.603Z,1022.25
2017-02-04T04:36:14.591Z,1022.21
2017-02-04T04:37:14.578Z,1022.26
2017-02-04T04:38:14.567Z,1022.28
2017-02-04T04:39:14.552Z,1022.27
2017-02-04T04:40:14.538Z,1022.28
2017-02-04T04:41:14.524Z,1022.26
2017-02-04T04:42:14.513Z,1022.27
2017-02-04T04:43:14.499Z,1022.17
2017-02-04T04:44:14.485Z,1022.19
2017-02-04T04:45:14.473Z,1022.26
2017-02-04T04:46:14.458Z,1022.28
2017-02-04T04:47:14.445Z,1022.23
2017-02-04T04:48:14.432Z,1022.24
2017-02-04T04:49:14.418Z,1022.2
2017-02-04T04:50:14.405Z,1022.19
2017-02-04T04:51:14.393Z,1022.19
2017-02-04T04:52:14.382Z,1022.19
2017-02-04T04:53:14.365Z,1022.2
2017-02-04T04:54:14.351Z,1022.24
2017-02-04T04:55:14.338Z,1022.25
2017-02-04T04:56:14.326Z,1022.24
2017-02-04T04:57:14.311Z,1022.23
2017-02-04T04:58:14.299Z,1022.26
2017-02-04T04:59:14.286Z,1022.27
2017-02-04T05:00:14.273Z,1022.29
2017-02-04T05:01:14.260Z,1022.29
2017-02-04T05:02:14.245Z,1022.3
2017-02-04T05:03:14.233Z,1022.34
2017-02-04T05:04:14.219Z,1022.31
2017-02-04T05:05:14.206Z,1022.27
2017-02-04T05:06:14.191Z,1022.27
2017-02-04T05:07:14.179Z,1022.26
2017-02-04T05:08:14.164Z,1022.31
2017-02-04T05:09:14.153Z,1022.32
2017-02-04T05:10:14.140Z,1022.3
2017-02-04T05:11:14.125Z,1022.3
2017-02-04T05:12:14.113Z,1022.34
2017-02-04T05:13:14.100Z,1022.37
2017-02-04T05:14:14.085Z,1022.38
2017-02-04T05:15:14.071Z,1022.49
2017-02-04T05:16:14.058Z,1022.51
2017-02-04T05:17:14.046Z,1022.49
2017-02-04T05:18:14.033Z,1022.47
2017-02-04T05:19:14.020Z,1022.54
2017-02-04T05:20:14.007Z,1022.49
2017-02-04T05:21:13.994Z,1022.48
2017-02-04T05:22:13.978Z,1022.46
2017-02-04T05:23:13.965Z,1022.39
2017-02-04T05:24:13.951Z,1022.39
2017-02-04T05:25:13.944Z,1022.4
2017-02-04T05:26:13.927Z,1022.42
2017-02-04T05:27:13.914Z,1022.38
2017-02-04T05:28:13.901Z,1022.35
2017-02-04T05:29:13.885Z,1022.42
2017-02-04T05:30:13.872Z,1022.45
2017-02-04T05:31:13.861Z,1022.44
2017-02-04T05:32:13.848Z,1022.45
2017-02-04T05:33:13.833Z,1022.43
2017-02-04T05:34:13.818Z,1022.48
2017-02-04T05:35:13.805Z,1022.53
2017-02-04T05:36:13.793Z,1022.52
2017-02-04T05:37:13.779Z,1022.51
2017-02-04T05:38:13.767Z,1022.52
2017-02-04T05:39:13.752Z,1022.55
2017-02-04T05:40:13.741Z,1022.49
2017-02-04T05:41:13.727Z,1022.46
2017-02-04T05:42:13.713Z,1022.48
2017-02-04T05:43:13.700Z,1022.53
2017-02-04T05:44:13.684Z,1022.51
2017-02-04T05:45:13.671Z,1022.57
2017-02-04T05:46:13.659Z,1022.54
2017-02-04T05:47:13.647Z,1022.58
2017-02-04T05:48:13.633Z,1022.59
2017-02-04T05:49:13.620Z,1022.58
2017-02-04T05:50:13.605Z,1022.59
2017-02-04T05:51:13.590Z,1022.55
2017-02-04T05:52:13.578Z,1022.6
2017-02-04T05:53:13.563Z,1022.62
2017-02-04T05:54:13.553Z,1022.56
2017-02-04T05:55:13.539Z,1022.6
2017-02-04T05:56:13.524Z,1022.55
2017-02-04T05:57:13.510Z,1022.57
2017-02-04T05:58:13.499Z,1022.57
2017-02-04T05:59:13.485Z,1022.56
2017-02-04T06:00:13.472Z,1022.56
2017-02-04T06:01:13.458Z,1022.57
2017-02-04T06:02:13.442Z,1022.54
2017-02-04T06:03:13.430Z,1022.5
2017-02-04T06:04:13.419Z,1022.48
2017-02-04T06:05:13.405Z,1022.47
2017-02-04T06:06:13.391Z,1022.47
2017-02-04T06:07:13.378Z,1022.47
2017-02-04T06:08:13.365Z,1022.48
2017-02-04T06:09:13.352Z,1022.54
2017-02-04T06:10:13.337Z,1022.56
2017-02-04T06:11:13.323Z,1022.58
2017-02-04T06:12:13.311Z,1022.6
2017-02-04T06:13:13.297Z,1022.56
2017-02-04T06:14:13.286Z,1022.55
2017-02-04T06:15:13.270Z,1022.56
2017-02-04T06:16:13.258Z,1022.53
2017-02-04T06:17:13.244Z,1022.52
2017-02-04T06:18:13.229Z,1022.48
2017-02-04T06:19:13.217Z,1022.44
2017-02-04T06:20:13.204Z,1022.46
2017-02-04T06:21:13.189Z,1022.41
2017-02-04T06:22:13.177Z,1022.43
2017-02-04T06:23:13.165Z,1022.44
2017-02-04T06:24:13.150Z,1022.42
2017-02-04T06:25:13.137Z,1022.37
2017-02-04T06:26:13.123Z,1022.4
2017-02-04T06:27:13.109Z,1022.41
2017-02-04T06:28:13.095Z,1022.39
2017-02-04T06:29:13.083Z,1022.38
2017-02-04T06:30:13.071Z,1022.39
2017-02-04T06:31:13.059Z,1022.43
2017-02-04T06:32:13.044Z,1022.38
2017-02-04T06:33:13.030Z,1022.39
2017-02-04T06:34:13.016Z,1022.38
2017-02-04T06:35:13.001Z,1022.41
2017-02-04T06:36:12.989Z,1022.37
2017-02-04T06:37:12.976Z,1022.36
2017-02-04T06:38:12.965Z,1022.39
2017-02-04T06:39:12.950Z,1022.41
2017-02-04T06:40:12.938Z,1022.44
2017-02-04T06:41:12.927Z,1022.41
2017-02-04T06:42:12.910Z,1022.41
2017-02-04T06:43:12.896Z,1022.42
2017-02-04T06:44:12.882Z,1022.46
2017-02-04T06:45:12.871Z,1022.5
2017-02-04T06:46:12.856Z,1022.52
2017-02-04T06:47:12.844Z,1022.5
2017-02-04T06:48:12.829Z,1022.56
2017-02-04T06:49:12.816Z,1022.53
2017-02-04T06:50:12.803Z,1022.48
2017-02-04T06:51:12.788Z,1022.46
2017-02-04T06:52:12.781Z,1022.39
2017-02-04T06:53:12.763Z,1022.46
2017-02-04T06:54:12.749Z,1022.49
2017-02-04T06:55:12.736Z,1022.52
2017-02-04T06:56:12.723Z,1022.52
2017-02-04T06:57:12.709Z,1022.52
2017-02-04T06:58:12.697Z,1022.49
2017-02-04T06:59:12.685Z,1022.43
2017-02-04T07:00:12.670Z,1022.41
2017-02-04T07:01:12.657Z,1022.36
2017-02-04T07:02:12.642Z,1022.34
2017-02-04T07:03:12.630Z,1022.33
2017-02-04T07:04:12.615Z,1022.38
2017-02-04T07:05:12.603Z,1022.38
2017-02-04T07:06:12.590Z,1022.36
2017-02-04T07:07:12.577Z,1022.37
2017-02-04T07:08:12.563Z,1022.37
2017-02-04T07:09:12.550Z,1022.36
2017-02-04T07:10:12.535Z,1022.37
2017-02-04T07:11:12.523Z,1022.41
2017-02-04T07:12:12.508Z,1022.36
2017-02-04T07:13:12.496Z,1022.4
2017-02-04T07:14:12.483Z,1022.38
2017-02-04T07:15:12.468Z,1022.33
2017-02-04T07:16:12.456Z,1022.32
2017-02-04T07:17:12.441Z,1022.28
2017-02-04T07:18:12.429Z,1022.28
2017-02-04T07:19:12.416Z,1022.21
2017-02-04T07:20:12.408Z,1022.15
2017-02-04T07:21:12.390Z,1022.1
2017-02-04T07:22:12.377Z,1022.04
2017-02-04T07:23:12.362Z,1022.01
2017-02-04T07:24:12.350Z,1021.96
2017-02-04T07:25:12.337Z,1021.97
2017-02-04T07:26:12.324Z,1021.92
2017-02-04T07:27:12.311Z,1021.92
2017-02-04T07:28:12.306Z,1021.91
2017-02-04T07:29:12.287Z,1021.86
2017-02-04T07:30:12.271Z,1021.84
2017-02-04T07:31:12.258Z,1021.84
2017-02-04T07:32:12.245Z,1021.84
2017-02-04T07:33:12.232Z,1021.86
2017-02-04T07:34:12.218Z,1021.85
2017-02-04T07:35:12.206Z,1021.81
2017-02-04T07:36:12.193Z,1021.84
2017-02-04T07:37:12.180Z,1021.8
2017-02-04T07:38:12.165Z,1021.78
2017-02-04T07:39:12.155Z,1021.68
2017-02-04T07:40:12.141Z,1021.73
2017-02-04T07:41:12.128Z,1021.69
2017-02-04T07:42:12.114Z,1021.69
2017-02-04T07:43:12.102Z,1021.71
2017-02-04T07:44:12.089Z,1021.66
2017-02-04T07:45:12.075Z,1021.65
2017-02-04T07:46:12.063Z,1021.64
2017-02-04T07:47:12.050Z,1021.6
2017-02-04T07:48:12.037Z,1021.55
2017-02-04T07:49:12.025Z,1021.51
2017-02-04T07:50:12.010Z,1021.49
2017-02-04T07:51:11.999Z,1021.49
2017-02-04T07:52:11.985Z,1021.46
2017-02-04T07:53:11.971Z,1021.41
2017-02-04T07:54:11.959Z,1021.44
2017-02-04T07:55:11.948Z,1021.44
2017-02-04T07:56:11.934Z,1021.43
2017-02-04T07:57:11.922Z,1021.41
2017-02-04T07:58:11.907Z,1021.36
2017-02-04T07:59:11.895Z,1021.34
2017-02-04T08:00:11.885Z,1021.39
2017-02-04T08:01:11.871Z,1021.4
2017-02-04T08:02:11.859Z,1021.34
2017-02-04T08:03:11.845Z,1021.3
2017-02-04T08:04:11.832Z,1021.3
2017-02-04T08:05:11.819Z,1021.27
2017-02-04T08:06:11.808Z,1021.27
2017-02-04T08:07:11.795Z,1021.16
2017-02-04T08:08:11.783Z,1021.09
2017-02-04T08:09:11.771Z,1021.02
2017-02-04T08:10:11.755Z,1020.98
2017-02-04T08:11:11.743Z,1020.94
2017-02-04T08:12:11.731Z,1020.91
2017-02-04T08:13:11.719Z,1020.92
2017-02-04T08:14:11.707Z,1020.88
2017-02-04T08:15:11.695Z,1020.81
2017-02-04T08:16:11.682Z,1020.76
2017-02-04T08:17:11.671Z,1020.71
2017-02-04T08:18:11.659Z,1020.68
2017-02-04T08:19:11.644Z,1020.61
2017-02-04T08:20:11.634Z,1020.52
2017-02-04T08:21:11.619Z,1020.4
2017-02-04T08:22:11.610Z,1020.34
2017-02-04T08:23:11.599Z,1020.32
2017-02-04T08:24:11.587Z,1020.28
2017-02-04T08:25:11.572Z,1020.25
2017-02-04T08:26:11.560Z,1020.24
2017-02-04T08:27:11.550Z,1020.17
2017-02-04T08:28:11.538Z,1020.1
2017-02-04T08:29:11.526Z,1020.04
2017-02-04T08:30:11.516Z,1019.97
2017-02-04T08:31:11.505Z,1019.97
2017-02-04T08:32:11.493Z,1019.96
2017-02-04T08:33:11.481Z,1019.99
2017-02-04T08:34:11.470Z,1019.98
2017-02-04T08:35:11.459Z,1020.02
2017-02-04T08:36:11.447Z,1020.03
2017-02-04T08:37:11.436Z,1020
2017-02-04T08:38:11.423Z,1020.01
2017-02-04T08:39:11.411Z,1020.01
2017-02-04T08:40:11.424Z,1020
2017-02-04T08:41:11.389Z,1020.03
2017-02-04T08:42:11.380Z,1019.98
2017-02-04T08:43:11.368Z,1020.04
2017-02-04T08:44:11.357Z,1020.1
2017-02-04T08:45:11.346Z,1020.16
2017-02-04T08:46:11.333Z,1020.18
2017-02-04T08:47:11.322Z,1020.27
2017-02-04T08:48:11.312Z,1020.26
2017-02-04T08:49:11.299Z,1020.29
2017-02-04T08:50:11.287Z,1020.27
2017-02-04T08:51:11.278Z,1020.26
2017-02-04T08:52:11.267Z,1020.34
2017-02-04T08:53:11.255Z,1020.26
2017-02-04T08:54:11.243Z,1020.21
2017-02-04T08:55:11.230Z,1020.2
2017-02-04T08:56:11.221Z,1020.21
2017-02-04T08:57:11.211Z,1020.22
2017-02-04T08:58:11.197Z,1020.17
2017-02-04T08:59:11.186Z,1020.18
2017-02-04T09:00:11.175Z,1020.2
2017-02-04T09:01:11.165Z,1020.24
2017-02-04T09:02:11.153Z,1020.22
2017-02-04T09:03:11.143Z,1020.21
2017-02-04T09:04:11.131Z,1020.16
2017-02-04T09:05:11.119Z,1020.1
2017-02-04T09:06:11.107Z,1020.08
2017-02-04T09:07:11.096Z,1020.06
2017-02-04T09:08:11.084Z,1020.09
2017-02-04T09:09:11.074Z,1019.99
2017-02-04T09:10:11.063Z,1019.89
2017-02-04T09:11:11.053Z,1019.88
2017-02-04T09:12:11.040Z,1019.92
2017-02-04T09:13:11.030Z,1019.95
2017-02-04T09:14:11.020Z,1019.91
2017-02-04T09:15:11.008Z,1019.84
2017-02-04T09:16:10.996Z,1019.85
2017-02-04T09:17:10.983Z,1019.78
2017-02-04T09:18:10.976Z,1019.78
2017-02-04T09:19:10.964Z,1019.76
2017-02-04T09:20:10.952Z,1019.76
2017-02-04T09:21:10.940Z,1019.77
2017-02-04T09:22:10.931Z,1019.71
2017-02-04T09:23:10.919Z,1019.7
2017-02-04T09:24:10.909Z,1019.67
2017-02-04T09:25:10.897Z,1019.62
2017-02-04T09:26:10.890Z,1019.63
2017-02-04T09:27:10.876Z,1019.5
2017-02-04T09:28:10.863Z,1019.5
2017-02-04T09:29:10.852Z,1019.44
2017-02-04T09:30:10.843Z,1019.44
2017-02-04T09:31:10.832Z,1019.51
2017-02-04T09:32:10.823Z,1019.45
2017-02-04T09:33:10.810Z,1019.41
2017-02-04T09:34:10.798Z,1019.44
2017-02-04T09:35:10.787Z,1019.44
2017-02-04T09:36:10.778Z,1019.4
2017-02-04T09:37:10.767Z,1019.38
2017-02-04T09:38:10.757Z,1019.35
2017-02-04T09:39:10.747Z,1019.36
2017-02-04T09:40:10.736Z,1019.27
2017-02-04T09:41:10.726Z,1019.34
2017-02-04T09:42:10.713Z,1019.33
2017-02-04T09:43:10.703Z,1019.2
2017-02-04T09:44:10.692Z,1019.2
2017-02-04T09:45:10.682Z,1019.17
2017-02-04T09:46:10.673Z,1019.19
2017-02-04T09:47:10.662Z,1019.14
2017-02-04T09:48:10.650Z,1019.12
2017-02-04T09:49:10.640Z,1019.11
2017-02-04T09:50:10.632Z,1019.02
2017-02-04T09:51:10.621Z,1019.08
2017-02-04T09:52:10.611Z,1019.1
2017-02-04T09:53:10.601Z,1019.17
2017-02-04T09:54:10.589Z,1019.19
2017-02-04T09:55:10.579Z,1019.19
2017-02-04T09:56:10.568Z,1019.19
2017-02-04T09:57:10.558Z,1019.17
2017-02-04T09:58:10.550Z,1019.24
2017-02-04T09:59:10.540Z,1019.21
2017-02-04T10:00:10.528Z,1019.16
2017-02-04T10:01:10.519Z,1019.15
2017-02-04T10:02:10.508Z,1019.1
2017-02-04T10:03:10.498Z,1019.08
2017-02-04T10:04:10.489Z,1019.1
2017-02-04T10:05:10.479Z,1019.1
2017-02-04T10:06:10.470Z,1019.14
2017-02-04T10:07:10.458Z,1019.06
2017-02-04T10:08:10.450Z,1019.04
2017-02-04T10:09:10.439Z,1019.03
2017-02-04T10:10:10.428Z,1019.06
2017-02-04T10:11:10.417Z,1019.08
2017-02-04T10:12:10.407Z,1019.08
2017-02-04T10:13:10.398Z,1019.06
2017-02-04T10:14:10.386Z,1019.06
2017-02-04T10:15:10.376Z,1019.06
2017-02-04T10:16:10.370Z,1019.1
2017-02-04T10:17:10.358Z,1019.04
2017-02-04T10:18:10.346Z,1018.99
2017-02-04T10:19:10.336Z,1018.9
2017-02-04T10:20:10.326Z,1018.78
2017-02-04T10:21:10.317Z,1018.77
2017-02-04T10:22:10.305Z,1018.7
2017-02-04T10:23:10.295Z,1018.57
2017-02-04T10:24:10.285Z,1018.49
2017-02-04T10:25:10.274Z,1018.41
2017-02-04T10:26:10.267Z,1018.41
2017-02-04T10:27:10.258Z,1018.44
2017-02-04T10:28:10.247Z,1018.5
2017-02-04T10:29:10.236Z,1018.42
2017-02-04T10:30:10.225Z,1018.36
2017-02-04T10:31:10.215Z,1018.21
2017-02-04T10:32:10.207Z,1018.1
2017-02-04T10:33:10.197Z,1018.08
2017-02-04T10:34:10.189Z,1017.92
2017-02-04T10:35:10.179Z,1017.81
2017-02-04T10:36:10.170Z,1017.78
2017-02-04T10:37:10.157Z,1017.71
2017-02-04T10:38:10.150Z,1017.66
2017-02-04T10:39:10.141Z,1017.65
2017-02-04T10:40:10.130Z,1017.66
2017-02-04T10:41:10.121Z,1017.62
2017-02-04T10:42:10.112Z,1017.59
2017-02-04T10:43:10.103Z,1017.49
2017-02-04T10:44:10.093Z,1017.49
2017-02-04T10:45:10.084Z,1017.39
2017-02-04T10:46:10.077Z,1017.37
2017-02-04T10:47:10.096Z,1017.38
2017-02-04T10:48:10.058Z,1017.36
2017-02-04T10:49:10.051Z,1017.32
2017-02-04T10:50:10.039Z,1017.37
2017-02-04T10:51:10.031Z,1017.35
2017-02-04T10:52:10.022Z,1017.4
2017-02-04T10:53:10.013Z,1017.38
2017-02-04T10:54:10.004Z,1017.43
2017-02-04T10:55:09.996Z,1017.51
2017-02-04T10:56:09.988Z,1017.59
2017-02-04T10:57:09.979Z,1017.59
2017-02-04T10:58:09.969Z,1017.64
2017-02-04T10:59:09.960Z,1017.66
2017-02-04T11:00:09.953Z,1017.66
2017-02-04T11:01:09.944Z,1017.65
2017-02-04T11:02:09.933Z,1017.8
2017-02-04T11:03:09.926Z,1017.89
2017-02-04T11:04:09.916Z,1017.97
2017-02-04T11:05:09.907Z,1018.04
2017-02-04T11:06:09.899Z,1018
2017-02-04T11:07:09.892Z,1017.92
2017-02-04T11:08:09.882Z,1017.85
2017-02-04T11:09:09.873Z,1017.77
2017-02-04T11:10:09.863Z,1017.72
2017-02-04T11:11:09.854Z,1017.71
2017-02-04T11:12:09.845Z,1017.76
2017-02-04T11:13:09.836Z,1017.75
2017-02-04T11:14:09.828Z,1017.71
2017-02-04T11:15:09.820Z,1017.63
2017-02-04T11:16:09.810Z,1017.59
2017-02-04T11:17:09.801Z,1017.7
2017-02-04T11:18:09.791Z,1017.75
2017-02-04T11:19:09.782Z,1017.8
2017-02-04T11:20:09.773Z,1017.76
2017-02-04T11:21:09.765Z,1017.73
2017-02-04T11:22:09.757Z,1017.74
2017-02-04T11:23:09.748Z,1017.7
2017-02-04T11:24:09.738Z,1017.66
2017-02-04T11:25:09.732Z,1017.63
2017-02-04T11:26:09.720Z,1017.6
2017-02-04T11:27:09.711Z,1017.5
2017-02-04T11:28:09.701Z,1017.48
2017-02-04T11:29:09.694Z,1017.37
2017-02-04T11:30:09.685Z,1017.24
2017-02-04T11:31:09.675Z,1017.1
2017-02-04T11:32:09.666Z,1017.02
2017-02-04T11:33:09.659Z,1016.97
2017-02-04T11:34:09.650Z,1016.96
2017-02-04T11:35:09.640Z,1016.88
2017-02-04T11:36:09.633Z,1016.85
2017-02-04T11:37:09.623Z,1016.84
2017-02-04T11:38:09.615Z,1016.87
2017-02-04T11:39:09.605Z,1016.9
2017-02-04T11:40:09.595Z,1016.82
2017-02-04T11:41:09.590Z,1016.84
2017-02-04T11:42:09.579Z,1016.82
2017-02-04T11:43:09.572Z,1016.77
2017-02-04T11:44:09.564Z,1016.77
2017-02-04T11:45:09.556Z,1016.73
2017-02-04T11:46:09.545Z,1016.62
2017-02-04T11:47:09.537Z,1016.62
2017-02-04T11:48:09.530Z,1016.62
2017-02-04T11:49:09.520Z,1016.63
2017-02-04T11:50:09.514Z,1016.7
2017-02-04T11:51:09.507Z,1016.78
2017-02-04T11:52:09.497Z,1016.78
2017-02-04T11:53:09.490Z,1016.78
2017-02-04T11:54:09.478Z,1016.72
2017-02-04T11:55:09.472Z,1016.71
2017-02-04T11:56:09.466Z,1016.62
2017-02-04T11:57:09.454Z,1016.58
2017-02-04T11:58:09.446Z,1016.5
2017-02-04T11:59:09.437Z,1016.47
2017-02-04T12:00:09.430Z,1016.31
2017-02-04T12:01:09.420Z,1016.28
2017-02-04T12:02:09.413Z,1016.27
2017-02-04T12:03:09.404Z,1016.24
2017-02-04T12:04:09.396Z,1016.28
2017-02-04T12:05:09.391Z,1016.3
2017-02-04T12:06:09.381Z,1016.42
2017-02-04T12:07:09.371Z,1016.51
2017-02-04T12:08:09.362Z,1016.61